createdAt,value
2023-04-10T00:02:04.747Z,58.57
2023-04-10T00:07:27.622Z,63.87
2023-04-10T00:12:51.330Z,59.77
2023-04-10T00:18:13.959Z,52.63
2023-04-10T00:23:36.994Z,50.47
2023-04-10T00:28:59.138Z,50.10
2023-04-10T00:34:21.850Z,47.43
2023-04-10T00:39:45.627Z,47.53
2023-04-10T00:45:08.597Z,46.33
2023-04-10T00:50:31.269Z,46.67
2023-04-10T00:55:54.966Z,49.73
2023-04-10T01:01:17.896Z,42.60
2023-04-10T01:07:04.279Z,42.20
2023-04-10T01:12:45.710Z,51.93
2023-04-10T01:18:27.015Z,44.33
2023-04-10T01:24:21.366Z,41.03
2023-04-10T01:29:52.330Z,49.63
2023-04-10T01:35:16.922Z,43.90
2023-04-10T01:40:40.416Z,45.77
2023-04-10T01:46:04.044Z,40.27
2023-04-10T01:51:27.966Z,44.37
2023-04-10T01:56:50.804Z,37.93
2023-04-10T02:02:13.857Z,41.60
2023-04-10T02:07:44.652Z,37.33
2023-04-10T02:13:10.230Z,37.77
2023-04-10T02:18:35.156Z,43.70
2023-04-10T02:23:58.537Z,42.50
2023-04-10T02:29:23.382Z,41.43
2023-04-10T02:34:45.536Z,42.63
2023-04-10T02:40:08.429Z,41.50
2023-04-10T02:45:42.639Z,37.70
2023-04-10T02:51:08.001Z,51.67
2023-04-10T02:56:34.304Z,41.90
2023-04-10T03:01:56.893Z,40.03
2023-04-10T03:07:19.554Z,45.80
2023-04-10T03:12:42.174Z,38.10
2023-04-10T03:18:05.977Z,36.63
2023-04-10T03:23:28.580Z,40.03
2023-04-10T03:28:52.930Z,32.33
2023-04-10T03:34:15.326Z,40.67
2023-04-10T03:39:37.529Z,38.33
2023-04-10T03:45:01.351Z,39.77
2023-04-10T03:50:23.771Z,38.60
2023-04-10T03:55:54.684Z,40.73
2023-04-10T04:01:19.036Z,36.23
2023-04-10T04:06:59.506Z,33.23
2023-04-10T04:12:39.126Z,32.67
2023-04-10T04:18:19.952Z,32.47
2023-04-10T04:23:50.884Z,30.00
2023-04-10T04:29:30.379Z,31.67
2023-04-10T04:35:07.872Z,36.40
2023-04-10T04:40:48.343Z,35.00
2023-04-10T04:46:17.269Z,30.30
2023-04-10T04:52:05.870Z,29.77
2023-04-10T04:57:35.610Z,38.83
2023-04-10T05:03:18.327Z,34.60
2023-04-10T05:09:12.864Z,29.03
2023-04-10T05:14:57.728Z,34.23
2023-04-10T05:20:51.983Z,25.17
2023-04-10T05:26:34.824Z,36.70
2023-04-10T05:32:16.545Z,24.90
2023-04-10T05:37:59.129Z,24.60
2023-04-10T05:43:29.323Z,26.03
2023-04-10T05:48:58.762Z,26.40
2023-04-10T05:54:39.846Z,31.13
2023-04-10T06:00:11.574Z,23.10
2023-04-10T06:05:36.518Z,23.23
2023-04-10T06:11:01.521Z,24.73
2023-04-10T06:16:25.810Z,25.47
2023-04-10T06:21:50.314Z,22.10
2023-04-10T06:27:13.503Z,24.80
2023-04-10T06:32:36.231Z,21.80
2023-04-10T06:37:58.715Z,21.57
2023-04-10T06:43:21.508Z,21.07
2023-04-10T06:48:45.759Z,23.20
2023-04-10T06:54:08.292Z,28.30
2023-04-10T06:59:31.838Z,28.20
2023-04-10T07:04:54.278Z,19.90
2023-04-10T07:10:16.843Z,30.57
2023-04-10T07:15:39.332Z,28.83
2023-04-10T07:21:02.411Z,34.07
2023-04-10T07:26:25.600Z,34.43
2023-04-10T07:31:48.061Z,45.00
2023-04-10T07:37:10.588Z,51.27
2023-04-10T07:42:33.193Z,45.10
2023-04-10T07:47:56.033Z,40.00
2023-04-10T07:53:18.582Z,40.27
2023-04-10T07:58:40.984Z,38.70
2023-04-10T08:04:05.647Z,38.80
2023-04-10T08:09:28.481Z,35.83
2023-04-10T08:14:51.711Z,32.90
2023-04-10T08:20:14.513Z,31.90
2023-04-10T08:25:36.769Z,34.50
2023-04-10T08:30:59.166Z,31.37
2023-04-10T08:36:21.648Z,39.90
2023-04-10T08:41:44.233Z,30.50
2023-04-10T08:47:08.450Z,34.23
2023-04-10T08:52:34.508Z,24.17
2023-04-10T08:58:01.141Z,26.73
2023-04-10T09:03:25.408Z,27.60
2023-04-10T09:08:50.718Z,33.87
2023-04-10T09:14:24.546Z,27.37
2023-04-10T09:19:52.812Z,17.90
2023-04-10T09:25:39.144Z,22.27
2023-04-10T09:31:02.309Z,28.47
2023-04-10T09:36:24.605Z,29.00
2023-04-10T09:41:57.715Z,25.97
2023-04-10T09:47:23.362Z,26.83
2023-04-10T09:52:45.486Z,25.30
2023-04-10T09:58:09.104Z,21.07
2023-04-10T10:03:31.805Z,23.90
2023-04-10T10:08:54.649Z,21.60
2023-04-10T10:14:19.776Z,24.90
2023-04-10T10:20:05.718Z,19.37
2023-04-10T10:25:29.360Z,24.83
2023-04-10T10:30:52.977Z,17.20
2023-04-10T10:36:18.457Z,24.60
2023-04-10T10:41:54.783Z,18.47
2023-04-10T10:47:24.588Z,19.40
2023-04-10T10:52:57.597Z,21.05
2023-04-10T10:58:46.816Z,14.35
2023-04-10T11:04:44.785Z,20.60
2023-04-10T11:10:07.629Z,18.23
2023-04-10T11:15:30.597Z,13.70
2023-04-10T11:21:11.444Z,14.70
2023-04-10T11:26:36.968Z,15.00
2023-04-10T11:32:01.908Z,13.13
2023-04-10T11:37:24.378Z,16.17
2023-04-10T11:42:47.952Z,15.90
2023-04-10T11:48:10.608Z,17.63
2023-04-10T11:53:32.820Z,20.38
2023-04-10T11:58:55.542Z,20.38
2023-04-10T12:04:19.880Z,21.63
2023-04-10T12:09:42.820Z,13.70
2023-04-10T12:15:26.470Z,19.27
2023-04-10T12:20:49.023Z,24.52
2023-04-10T12:26:16.370Z,22.67
2023-04-10T12:31:39.089Z,22.50
2023-04-10T12:37:02.926Z,18.60
2023-04-10T12:42:26.470Z,18.27
2023-04-10T12:47:52.640Z,18.17
2023-04-10T12:53:15.233Z,21.85
2023-04-10T12:58:38.437Z,18.55
2023-04-10T13:04:00.702Z,22.67
2023-04-10T13:09:25.679Z,19.63
2023-04-10T13:14:48.116Z,17.60
2023-04-10T13:20:12.099Z,16.95
2023-04-10T13:25:39.599Z,9.07
2023-04-10T13:31:02.596Z,11.50
2023-04-10T13:36:26.294Z,11.18
2023-04-10T13:41:48.976Z,10.23
2023-04-10T13:47:11.399Z,12.25
2023-04-10T13:52:33.706Z,8.90
2023-04-10T13:57:56.257Z,9.93
2023-04-10T14:03:18.835Z,12.18
2023-04-10T14:08:41.093Z,11.10
2023-04-10T14:14:03.597Z,15.38
2023-04-10T14:19:25.784Z,13.95
2023-04-10T14:24:48.978Z,11.73
2023-04-10T14:30:12.778Z,15.55
2023-04-10T14:35:35.426Z,13.55
2023-04-10T14:40:58.034Z,14.55
2023-04-10T14:46:20.507Z,11.77
2023-04-10T14:51:43.891Z,13.18
2023-04-10T14:57:06.184Z,19.00
2023-04-10T15:02:30.162Z,17.55
2023-04-10T15:07:52.623Z,15.32
2023-04-10T15:13:15.560Z,15.43
2023-04-10T15:18:38.183Z,15.82
2023-04-10T15:24:01.184Z,14.35
2023-04-10T15:29:23.602Z,12.32
2023-04-10T15:34:46.161Z,11.48
2023-04-10T15:40:10.479Z,9.95
2023-04-10T15:45:33.059Z,9.20
2023-04-10T15:50:55.495Z,12.98
2023-04-10T15:56:17.686Z,12.75
2023-04-10T16:01:40.614Z,8.93
2023-04-10T16:07:02.946Z,10.82
2023-04-10T16:12:25.443Z,9.18
2023-04-10T16:17:47.976Z,10.23
2023-04-10T16:23:10.544Z,8.77
2023-04-10T16:28:32.819Z,12.02
2023-04-10T16:33:55.640Z,12.73
2023-04-10T16:39:18.148Z,10.48
2023-04-10T16:44:40.621Z,10.57
2023-04-10T16:50:03.608Z,11.50
2023-04-10T16:55:25.777Z,12.07
2023-04-10T17:00:48.626Z,10.18
2023-04-10T17:06:11.346Z,9.75
2023-04-10T17:11:33.710Z,9.70
2023-04-10T17:16:56.033Z,9.53
2023-04-10T17:22:20.632Z,9.90
2023-04-10T17:27:42.941Z,10.60
2023-04-10T17:33:05.533Z,10.30
2023-04-10T17:38:27.785Z,8.73
2023-04-10T17:43:50.634Z,8.07
2023-04-10T17:49:13.228Z,9.50
2023-04-10T17:54:35.704Z,8.40
2023-04-10T17:59:58.171Z,9.60
2023-04-10T18:05:20.715Z,8.60
2023-04-10T18:10:43.091Z,11.80
2023-04-10T18:16:05.854Z,11.67
2023-04-10T18:21:28.163Z,11.53
2023-04-10T18:26:50.658Z,12.60
2023-04-10T18:32:13.340Z,11.07
2023-04-10T18:37:35.505Z,14.47
2023-04-10T18:42:58.569Z,17.13
2023-04-10T18:48:21.664Z,12.83
2023-04-10T18:53:44.132Z,10.37
2023-04-10T18:59:06.287Z,9.03
2023-04-10T19:04:28.924Z,8.63
2023-04-10T19:09:51.182Z,9.03
2023-04-10T19:15:13.611Z,17.97
2023-04-10T19:20:50.361Z,12.20
2023-04-10T19:26:14.763Z,14.00
2023-04-10T19:31:37.344Z,10.67
2023-04-10T19:36:59.835Z,13.50
2023-04-10T19:42:22.235Z,11.77
2023-04-10T19:47:44.547Z,10.93
2023-04-10T19:53:07.307Z,14.17
2023-04-10T19:58:39.973Z,14.40
2023-04-10T20:04:03.547Z,11.07
2023-04-10T20:09:25.940Z,9.50
2023-04-10T20:14:48.469Z,12.00
2023-04-10T20:20:12.744Z,8.53
2023-04-10T20:25:36.221Z,9.17
2023-04-10T20:30:58.727Z,11.07
2023-04-10T20:36:21.183Z,10.67
2023-04-10T20:41:43.492Z,9.27
2023-04-10T20:47:06.539Z,11.00
2023-04-10T20:52:29.104Z,11.23
2023-04-10T20:57:51.583Z,11.70
2023-04-10T21:03:14.362Z,12.43
2023-04-10T21:08:36.700Z,10.93
2023-04-10T21:13:58.918Z,10.53
2023-04-10T21:19:21.119Z,10.73
2023-04-10T21:24:43.520Z,10.30
2023-04-10T21:30:06.300Z,8.03
2023-04-10T21:35:28.788Z,9.80
2023-04-10T21:40:52.559Z,13.03
2023-04-10T21:46:15.062Z,12.07
2023-04-10T21:51:37.994Z,10.17
2023-04-10T21:57:00.339Z,9.60
2023-04-10T22:02:22.823Z,11.27
2023-04-10T22:07:45.170Z,10.17
2023-04-10T22:13:08.844Z,9.37
2023-04-10T22:18:32.854Z,11.63
2023-04-10T22:23:55.052Z,11.70
2023-04-10T22:29:17.344Z,9.73
2023-04-10T22:34:39.657Z,11.70
2023-04-10T22:40:02.016Z,12.07
2023-04-10T22:45:24.510Z,9.23
2023-04-10T22:50:47.142Z,10.50
2023-04-10T22:56:10.840Z,9.90
2023-04-10T23:01:33.342Z,11.47
2023-04-10T23:06:55.863Z,11.60
2023-04-10T23:12:18.445Z,10.60
2023-04-10T23:17:40.784Z,12.00
2023-04-10T23:23:03.397Z,10.47
2023-04-10T23:28:26.657Z,10.03
2023-04-10T23:33:49.092Z,10.73
2023-04-10T23:39:11.278Z,11.87
2023-04-10T23:44:33.639Z,10.37
2023-04-10T23:49:56.156Z,10.70
2023-04-10T23:55:19.006Z,10.33
